Time;durP1;ratioP1;P1;durP2;ratioP2;P2;SDS_P1;SDS_P2;PMS_P1;PMS_P2;Temp;Humidity;BMP_temperature;BMP_pressure;BME280_temperature;BME280_humidity;BME280_pressure;Samples;Min_cycle;Max_cycle;Signal;HPM_P1;HPM_P2
2022/02/13 00:02:13;;;;;;;0.22;0.22;;;;;25.40;100294.00;;;;5112816;28;20141;-77
2022/02/13 00:04:47;;;;;;;0.20;0.20;;;;;25.40;100294.00;;;;5096405;28;20408;-77
2022/02/13 00:07:17;;;;;;;0.30;0.30;;;;;25.40;100305.00;;;;5081850;28;20044;-77
2022/02/13 00:09:47;;;;;;;0.28;0.28;;;;;25.40;100320.00;;;;5084648;28;20067;-76
2022/02/13 00:12:16;;;;;;;0.30;0.30;;;;;25.30;100318.00;;;;5085505;28;20507;-78
2022/02/13 00:14:46;;;;;;;0.30;0.30;;;;;25.10;100307.00;;;;5085476;28;20142;-78
2022/02/13 00:17:15;;;;;;;0.25;0.25;;;;;25.10;100335.00;;;;5085102;28;20063;-77
2022/02/13 00:19:45;;;;;;;0.20;0.20;;;;;25.00;100324.00;;;;5089024;28;20054;-77
2022/02/13 00:22:18;;;;;;;0.30;0.30;;;;;24.90;100330.00;;;;5089252;28;20154;-78
2022/02/13 00:24:49;;;;;;;0.30;0.30;;;;;24.80;100330.00;;;;5087640;28;20134;-77
2022/02/13 00:27:19;;;;;;;0.30;0.30;;;;;24.80;100321.00;;;;5089687;28;20040;-76
2022/02/13 00:29:49;;;;;;;0.20;0.20;;;;;24.80;100319.00;;;;5081629;28;20039;-75
2022/02/13 00:32:21;;;;;;;0.30;0.30;;;;;24.80;100339.00;;;;5099300;27;20097;-76
2022/02/13 00:34:51;;;;;;;0.20;0.20;;;;;24.80;100326.00;;;;5097516;28;20502;-78
2022/02/13 00:37:21;;;;;;;0.30;0.30;;;;;24.90;100344.00;;;;5100488;28;20093;-77
2022/02/13 00:39:51;;;;;;;0.30;0.30;;;;;25.10;100345.00;;;;5097276;28;20036;-78
2022/02/13 00:42:20;;;;;;;0.30;0.30;;;;;25.20;100330.00;;;;5106524;27;20040;-75
2022/02/13 00:44:50;;;;;;;0.30;0.30;;;;;25.20;100350.00;;;;5109329;27;20468;-77
2022/02/13 00:47:19;;;;;;;0.30;0.30;;;;;25.20;100320.00;;;;5109041;27;20036;-77
2022/02/13 00:49:49;;;;;;;0.30;0.30;;;;;25.00;100326.00;;;;5108725;27;20494;-77
2022/02/13 00:52:20;;;;;;;0.30;0.30;;;;;24.90;100341.00;;;;5109598;27;20124;-78
2022/02/13 00:54:50;;;;;;;0.30;0.30;;;;;24.90;100335.00;;;;5107900;27;20138;-77
2022/02/13 00:57:24;;;;;;;0.30;0.30;;;;;24.80;100309.00;;;;5110094;27;20692;-77
2022/02/13 00:59:53;;;;;;;0.20;0.20;;;;;24.90;100301.00;;;;5097044;27;20036;-79
2022/02/13 01:02:23;;;;;;;0.28;0.28;;;;;25.10;100296.00;;;;5082221;27;20052;-79
2022/02/13 01:04:55;;;;;;;0.30;0.30;;;;;24.90;100291.00;;;;5113739;27;20425;-78
2022/02/13 01:07:25;;;;;;;0.28;0.28;;;;;24.70;100294.00;;;;5114890;27;20032;-78
2022/02/13 01:09:55;;;;;;;0.30;0.30;;;;;24.60;100298.00;;;;5116036;27;20520;-77
2022/02/13 01:12:26;;;;;;;0.30;0.30;;;;;24.80;100305.00;;;;5115396;27;20054;-79
2022/02/13 01:14:58;;;;;;;0.30;0.30;;;;;24.90;100312.00;;;;5117730;27;20042;-77
2022/02/13 01:17:28;;;;;;;0.30;0.30;;;;;24.80;100301.00;;;;5118145;27;20046;-80
2022/02/13 01:19:57;;;;;;;0.30;0.30;;;;;24.60;100289.00;;;;5097720;27;20434;-79
2022/02/13 01:22:29;;;;;;;0.20;0.20;;;;;24.50;100302.00;;;;5128906;27;20035;-78
2022/02/13 01:24:58;;;;;;;0.30;0.30;;;;;24.50;100293.00;;;;5096670;28;20040;-77
2022/02/13 01:27:31;;;;;;;0.25;0.25;;;;;24.40;100308.00;;;;5098329;28;20035;-79
2022/02/13 01:30:01;;;;;;;0.20;0.20;;;;;24.50;100299.00;;;;5095563;28;20396;-77
2022/02/13 01:32:32;;;;;;;0.20;0.20;;;;;24.70;100321.00;;;;5096115;28;20691;-76
2022/02/13 01:35:01;;;;;;;0.30;0.30;;;;;24.80;100310.00;;;;5093296;28;20047;-78
2022/02/13 01:37:30;;;;;;;0.30;0.30;;;;;24.90;100303.00;;;;5084821;28;20044;-78
2022/02/13 01:40:00;;;;;;;0.40;0.40;;;;;24.80;100285.00;;;;5088074;28;20043;-81
2022/02/13 01:42:29;;;;;;;0.20;0.20;;;;;24.70;100297.00;;;;5087538;28;20111;-81
2022/02/13 01:44:59;;;;;;;0.30;0.30;;;;;24.50;100307.00;;;;5085529;28;20048;-79
2022/02/13 01:47:29;;;;;;;0.30;0.30;;;;;24.40;100307.00;;;;5085626;28;20094;-80
2022/02/13 01:49:58;;;;;;;0.30;0.30;;;;;24.30;100304.00;;;;5087892;28;20090;-79
2022/02/13 01:52:29;;;;;;;0.30;0.30;;;;;24.30;100294.00;;;;5087473;28;20517;-80
2022/02/13 01:54:59;;;;;;;0.30;0.30;;;;;24.30;100291.00;;;;5087473;28;20515;-79
2022/02/13 01:57:29;;;;;;;0.30;0.30;;;;;24.30;100268.00;;;;5088710;28;20039;-76
2022/02/13 01:59:58;;;;;;;0.30;0.30;;;;;24.20;100290.00;;;;5087284;28;20062;-79
2022/02/13 02:02:39;;;;;;;0.30;0.30;;;;;24.10;100268.00;;;;5089019;28;20058;-80
2022/02/13 02:05:09;;;;;;;0.30;0.30;;;;;24.10;100285.00;;;;5090640;28;20044;-77
2022/02/13 02:07:38;;;;;;;0.30;0.30;;;;;24.10;100284.00;;;;5094843;28;20487;-79
2022/02/13 02:10:08;;;;;;;0.20;0.20;;;;;24.00;100273.00;;;;5095023;28;20054;-76
2022/02/13 02:12:38;;;;;;;0.30;0.30;;;;;24.00;100261.00;;;;5094826;28;20068;-79
2022/02/13 02:15:08;;;;;;;0.30;0.30;;;;;24.00;100243.00;;;;5093943;28;20044;-76
2022/02/13 02:17:37;;;;;;;0.30;0.30;;;;;23.90;100243.00;;;;5094195;28;20285;-77
2022/02/13 02:20:07;;;;;;;0.30;0.30;;;;;23.90;100254.00;;;;5101644;28;20032;-80
2022/02/13 02:22:37;;;;;;;0.30;0.30;;;;;23.90;100252.00;;;;5114129;28;20035;-80
2022/02/13 02:25:07;;;;;;;0.30;0.30;;;;;24.00;100249.00;;;;5113346;28;20028;-81
2022/02/13 02:27:37;;;;;;;0.30;0.30;;;;;24.00;100247.00;;;;5113569;28;20028;-76
2022/02/13 02:30:07;;;;;;;0.30;0.30;;;;;23.90;100239.00;;;;5112979;28;20072;-79
2022/02/13 02:32:36;;;;;;;0.22;0.22;;;;;23.90;100227.00;;;;5110053;28;20040;-79
2022/02/13 02:35:06;;;;;;;0.30;0.30;;;;;23.90;100226.00;;;;5109831;28;20067;-77
2022/02/13 02:37:36;;;;;;;0.30;0.30;;;;;23.90;100226.00;;;;5086375;28;20121;-77
2022/02/13 02:40:07;;;;;;;0.30;0.30;;;;;23.90;100238.00;;;;5088230;28;20058;-76
2022/02/13 02:42:37;;;;;;;0.30;0.30;;;;;23.90;100251.00;;;;5086343;28;20110;-77
2022/02/13 02:45:06;;;;;;;0.30;0.30;;;;;24.00;100237.00;;;;5088079;28;20781;-76
2022/02/13 02:47:36;;;;;;;0.30;0.30;;;;;24.00;100252.00;;;;5089026;28;20453;-77
2022/02/13 02:50:06;;;;;;;0.30;0.30;;;;;24.00;100235.00;;;;5088676;28;20172;-77
2022/02/13 02:52:35;;;;;;;0.30;0.30;;;;;24.00;100246.00;;;;5087049;28;20040;-76
2022/02/13 02:55:06;;;;;;;0.30;0.30;;;;;24.10;100237.00;;;;5086851;28;20063;-78
2022/02/13 02:57:36;;;;;;;0.30;0.30;;;;;24.20;100243.00;;;;5069621;28;20518;-78
2022/02/13 03:00:06;;;;;;;0.30;0.30;;;;;24.20;100259.00;;;;5086929;28;20036;-77
2022/02/13 03:02:36;;;;;;;0.30;0.30;;;;;24.20;100245.00;;;;5089114;28;20419;-76
2022/02/13 03:05:05;;;;;;;0.30;0.30;;;;;24.20;100212.00;;;;5087139;28;20044;-77
2022/02/13 03:07:35;;;;;;;0.30;0.30;;;;;24.20;100240.00;;;;5087321;28;20067;-80
2022/02/13 03:10:04;;;;;;;0.30;0.30;;;;;24.20;100236.00;;;;5089096;28;20052;-77
2022/02/13 03:12:34;;;;;;;0.30;0.30;;;;;24.20;100238.00;;;;5086021;28;20059;-80
2022/02/13 03:15:05;;;;;;;0.30;0.30;;;;;24.20;100238.00;;;;5086633;28;20043;-78
2022/02/13 03:17:34;;;;;;;0.28;0.28;;;;;24.20;100230.00;;;;5086985;28;20048;-80
2022/02/13 03:20:06;;;;;;;0.30;0.30;;;;;24.10;100237.00;;;;5087317;28;20583;-77
2022/02/13 03:22:36;;;;;;;0.30;0.30;;;;;24.10;100228.00;;;;5084880;28;20105;-77
2022/02/13 03:25:06;;;;;;;0.30;0.30;;;;;24.10;100208.00;;;;5085501;28;20077;-77
2022/02/13 03:27:36;;;;;;;0.30;0.30;;;;;24.00;100202.00;;;;5086109;28;20055;-77
2022/02/13 03:30:06;;;;;;;0.30;0.30;;;;;24.00;100205.00;;;;5086755;28;20044;-76
2022/02/13 03:32:35;;;;;;;0.30;0.30;;;;;23.90;100219.00;;;;5086340;28;20047;-77
2022/02/13 03:35:06;;;;;;;0.30;0.30;;;;;23.80;100230.00;;;;5068437;28;20082;-77
2022/02/13 03:37:37;;;;;;;0.30;0.30;;;;;23.80;100223.00;;;;5085118;28;20075;-76
2022/02/13 03:40:08;;;;;;;0.30;0.30;;;;;23.70;100212.00;;;;5085120;28;20072;-77
2022/02/13 03:42:37;;;;;;;0.30;0.30;;;;;23.70;100205.00;;;;5086483;28;20090;-77
2022/02/13 03:45:08;;;;;;;;;;;;;23.60;100216.00;;;;5085683;28;20040;-77
2022/02/13 03:47:39;;;;;;;0.30;0.30;;;;;23.50;100194.00;;;;5086256;28;20387;-77
2022/02/13 03:50:11;;;;;;;0.30;0.30;;;;;23.50;100197.00;;;;5086332;28;20559;-78
2022/02/13 03:52:40;;;;;;;0.30;0.30;;;;;23.50;100202.00;;;;5069047;28;20144;-77
2022/02/13 03:55:13;;;;;;;;;;;;;23.50;100199.00;;;;5090726;28;20046;-77
2022/02/13 03:57:43;;;;;;;0.20;0.20;;;;;23.40;100201.00;;;;5090059;28;20014;-77
2022/02/13 04:00:14;;;;;;;0.30;0.30;;;;;23.30;100184.00;;;;5090171;28;20498;-77
2022/02/13 04:02:44;;;;;;;0.30;0.30;;;;;23.30;100176.00;;;;5088673;28;20044;-77
2022/02/13 04:05:14;;;;;;;0.30;0.30;;;;;23.30;100167.00;;;;5090089;28;20044;-77
2022/02/13 04:07:44;;;;;;;0.30;0.30;;;;;23.30;100172.00;;;;5089061;28;20047;-77
2022/02/13 04:10:15;;;;;;;0.20;0.20;;;;;23.10;100161.00;;;;5090444;28;20046;-77
2022/02/13 04:12:45;;;;;;;0.30;0.30;;;;;23.10;100167.00;;;;5089674;28;20051;-78
2022/02/13 04:15:17;;;;;;;0.30;0.30;;;;;23.00;100163.00;;;;5089513;28;20055;-77
2022/02/13 04:17:46;;;;;;;0.30;0.30;;;;;22.90;100179.00;;;;5089455;28;20040;-78
2022/02/13 04:20:20;;;;;;;0.30;0.30;;;;;22.80;100169.00;;;;5087786;28;20400;-76
2022/02/13 04:22:49;;;;;;;0.28;0.28;;;;;22.70;100147.00;;;;5089826;28;20445;-76
2022/02/13 04:25:19;;;;;;;0.30;0.30;;;;;22.60;100165.00;;;;5089451;28;20079;-77
2022/02/13 04:27:48;;;;;;;0.30;0.30;;;;;22.50;100149.00;;;;5071174;28;20062;-77
2022/02/13 04:30:18;;;;;;;0.30;0.30;;;;;22.40;100150.00;;;;5089201;28;20047;-77
2022/02/13 04:32:47;;;;;;;0.30;0.30;;;;;22.40;100146.00;;;;5089709;28;20055;-77
2022/02/13 04:35:17;;;;;;;0.25;0.25;;;;;22.40;100141.00;;;;5087840;28;20047;-77
2022/02/13 04:37:51;;;;;;;0.30;0.30;;;;;22.30;100113.00;;;;5088807;28;20145;-77
2022/02/13 04:40:22;;;;;;;0.20;0.20;;;;;22.20;100132.00;;;;5088887;28;20044;-77
2022/02/13 04:42:51;;;;;;;0.30;0.30;;;;;22.20;100126.00;;;;5087505;28;20048;-76
2022/02/13 04:45:21;;;;;;;0.30;0.30;;;;;22.10;100123.00;;;;5090387;28;20482;-77
2022/02/13 04:47:50;;;;;;;0.20;0.20;;;;;22.10;100124.00;;;;5089054;28;20047;-77
2022/02/13 04:50:22;;;;;;;0.20;0.20;;;;;22.10;100119.00;;;;5088339;28;20992;-77
2022/02/13 04:52:54;;;;;;;5.70;5.18;;;;;22.00;100124.00;;;;5087615;28;20472;-77
2022/02/13 04:55:24;;;;;;;11.02;10.25;;;;;22.00;100129.00;;;;5087698;28;20036;-77
2022/02/13 04:57:55;;;;;;;0.00;0.00;;;;;21.90;100111.00;;;;5089738;28;20058;-77
2022/02/13 05:00:24;;;;;;;1.40;1.40;;;;;21.90;100141.00;;;;5089544;28;20040;-78
2022/02/13 05:02:54;;;;;;;0.00;0.00;;;;;21.80;100119.00;;;;5089588;28;20040;-77
2022/02/13 05:05:23;;;;;;;73.88;34.78;;;;;21.80;100111.00;;;;5088220;28;20048;-78
2022/02/13 05:07:53;;;;;;;0.00;0.00;;;;;21.80;100120.00;;;;5088728;28;20067;-76
2022/02/13 05:10:23;;;;;;;3.60;3.40;;;;;21.80;100111.00;;;;5089006;28;20044;-76
2022/02/13 05:12:52;;;;;;;1.33;1.33;;;;;21.90;100123.00;;;;5088811;28;20040;-77
2022/02/13 05:15:22;;;;;;;0.00;0.00;;;;;22.00;100116.00;;;;5087682;28;20068;-77
2022/02/13 05:17:51;;;;;;;0.00;0.00;;;;;22.10;100121.00;;;;5088622;28;20051;-77
2022/02/13 05:20:21;;;;;;;0.00;0.00;;;;;22.30;100118.00;;;;5088549;28;20126;-77
2022/02/13 05:22:50;;;;;;;0.00;0.00;;;;;22.40;100144.00;;;;5086597;28;20486;-77
2022/02/13 05:25:20;;;;;;;0.00;0.00;;;;;22.50;100142.00;;;;5088937;28;20054;-77
2022/02/13 05:27:50;;;;;;;0.00;0.00;;;;;22.50;100126.00;;;;5088601;28;20126;-77
2022/02/13 05:30:19;;;;;;;0.00;0.00;;;;;22.50;100114.00;;;;5088501;28;20456;-76
2022/02/13 05:32:49;;;;;;;0.00;0.00;;;;;22.50;100122.00;;;;5088322;28;20044;-77
2022/02/13 05:35:18;;;;;;;0.00;0.00;;;;;22.40;100125.00;;;;5087965;28;20048;-76
2022/02/13 05:37:49;;;;;;;0.00;0.00;;;;;22.40;100124.00;;;;5087316;28;20060;-77
2022/02/13 05:40:19;;;;;;;0.00;0.00;;;;;22.40;100110.00;;;;5086354;28;20580;-77
2022/02/13 05:42:48;;;;;;;0.00;0.00;;;;;22.40;100103.00;;;;5086807;28;20052;-78
2022/02/13 05:45:18;;;;;;;0.00;0.00;;;;;22.30;100127.00;;;;5087864;28;20457;-76
2022/02/13 05:47:48;;;;;;;0.00;0.00;;;;;22.30;100132.00;;;;5088029;28;20052;-78
2022/02/13 05:50:17;;;;;;;0.00;0.00;;;;;22.30;100118.00;;;;5088204;28;20047;-77
2022/02/13 05:52:46;;;;;;;0.00;0.00;;;;;22.30;100116.00;;;;5087720;28;20053;-78
2022/02/13 05:55:16;;;;;;;0.00;0.00;;;;;22.30;100128.00;;;;5087900;28;20135;-77
2022/02/13 05:57:46;;;;;;;0.00;0.00;;;;;22.20;100131.00;;;;5087591;28;20044;-76
2022/02/13 06:00:16;;;;;;;0.00;0.00;;;;;22.20;100117.00;;;;5088239;28;20048;-77
2022/02/13 06:02:47;;;;;;;0.00;0.00;;;;;22.20;100104.00;;;;5087482;28;20051;-76
2022/02/13 06:05:16;;;;;;;0.00;0.00;;;;;22.30;100105.00;;;;5069857;28;20044;-78
2022/02/13 06:07:48;;;;;;;0.00;0.00;;;;;22.30;100106.00;;;;5087845;28;20486;-76
2022/02/13 06:10:18;;;;;;;0.00;0.00;;;;;22.30;100115.00;;;;5087567;28;20096;-76
2022/02/13 06:12:50;;;;;;;0.00;0.00;;;;;22.30;100126.00;;;;5087127;28;20125;-76
2022/02/13 06:15:19;;;;;;;0.00;0.00;;;;;22.30;100147.00;;;;5085493;28;20056;-76
2022/02/13 06:17:51;;;;;;;0.00;0.00;;;;;22.30;100145.00;;;;5069936;28;20079;-77
2022/02/13 06:20:20;;;;;;;0.00;0.00;;;;;22.30;100140.00;;;;5087066;28;20048;-76
2022/02/13 06:22:50;;;;;;;0.00;0.00;;;;;22.30;100127.00;;;;5085814;28;20052;-76
2022/02/13 06:25:19;;;;;;;0.00;0.00;;;;;22.30;100143.00;;;;5087729;28;20036;-77
2022/02/13 06:27:48;;;;;;;0.00;0.00;;;;;22.30;100147.00;;;;5087335;28;20048;-77
2022/02/13 06:30:18;;;;;;;0.00;0.00;;;;;22.30;100151.00;;;;5087132;28;20056;-77
2022/02/13 06:32:47;;;;;;;0.00;0.00;;;;;22.40;100138.00;;;;5087193;28;20043;-76
2022/02/13 06:35:17;;;;;;;0.00;0.00;;;;;22.40;100138.00;;;;5086698;28;20044;-77
2022/02/13 06:37:46;;;;;;;0.00;0.00;;;;;22.30;100147.00;;;;5087254;28;20078;-77
2022/02/13 06:40:16;;;;;;;0.00;0.00;;;;;22.30;100148.00;;;;5086666;28;20044;-76
2022/02/13 06:42:45;;;;;;;0.00;0.00;;;;;22.30;100131.00;;;;5085950;28;20573;-77
2022/02/13 06:45:15;;;;;;;0.20;0.17;;;;;22.30;100135.00;;;;5086238;28;20051;-77
2022/02/13 06:47:44;;;;;;;0.00;0.00;;;;;22.30;100106.00;;;;5086527;28;20423;-76
2022/02/13 06:50:14;;;;;;;0.00;0.00;;;;;22.30;100111.00;;;;5087378;28;20453;-77
2022/02/13 06:52:43;;;;;;;0.00;0.00;;;;;22.30;100113.00;;;;5085762;28;20056;-77
2022/02/13 06:55:12;;;;;;;0.00;0.00;;;;;22.30;100106.00;;;;5085622;28;20059;-76
2022/02/13 06:57:49;;;;;;;0.00;0.00;;;;;22.20;100114.00;;;;5087359;28;20042;-77
2022/02/13 07:00:20;;;;;;;0.00;0.00;;;;;22.20;100111.00;;;;5084815;28;20604;-77
2022/02/13 07:02:50;;;;;;;0.00;0.00;;;;;22.20;100139.00;;;;5085513;28;20093;-76
2022/02/13 07:05:22;;;;;;;0.00;0.00;;;;;22.10;100147.00;;;;5086844;28;20044;-75
2022/02/13 07:07:52;;;;;;;0.15;0.15;;;;;22.30;100158.00;;;;5086665;28;20036;-76
2022/02/13 07:10:22;;;;;;;0.00;0.00;;;;;22.30;100149.00;;;;5086642;28;20411;-77
2022/02/13 07:12:51;;;;;;;0.20;0.20;;;;;22.30;100152.00;;;;5086191;28;20446;-76
2022/02/13 07:15:21;;;;;;;1.02;0.85;;;;;22.10;100132.00;;;;5087200;28;20453;-76
2022/02/13 07:17:51;;;;;;;0.00;0.00;;;;;22.10;100110.00;;;;5085417;28;20046;-76
2022/02/13 07:20:20;;;;;;;0.00;0.00;;;;;22.00;100104.00;;;;5085137;28;20476;-76
2022/02/13 07:22:50;;;;;;;0.00;0.00;;;;;21.90;100113.00;;;;5086812;28;20064;-76
2022/02/13 07:25:19;;;;;;;0.00;0.00;;;;;21.80;100117.00;;;;5084741;28;20131;-76
2022/02/13 07:27:48;;;;;;;0.00;0.00;;;;;21.80;100128.00;;;;5086104;28;20056;-76
2022/02/13 07:30:18;;;;;;;0.00;0.00;;;;;21.90;100130.00;;;;5089205;28;20052;-76
2022/02/13 07:32:47;;;;;;;0.00;0.00;;;;;22.00;100117.00;;;;5090392;28;20044;-77
2022/02/13 07:35:17;;;;;;;58.50;53.72;;;;;22.00;100129.00;;;;5089764;28;20047;-76
2022/02/13 07:37:46;;;;;;;0.00;0.00;;;;;22.00;100125.00;;;;5072455;28;20047;-76
2022/02/13 07:40:16;;;;;;;0.00;0.00;;;;;22.00;100117.00;;;;5090782;28;20521;-76
2022/02/13 07:42:45;;;;;;;0.00;0.00;;;;;21.90;100111.00;;;;5090771;28;20101;-76
2022/02/13 07:45:14;;;;;;;0.00;0.00;;;;;21.90;100115.00;;;;5090503;28;20085;-76
2022/02/13 07:47:44;;;;;;;0.00;0.00;;;;;21.80;100109.00;;;;5090472;28;20036;-76
2022/02/13 07:50:13;;;;;;;0.00;0.00;;;;;21.70;100127.00;;;;5090282;28;20057;-75
2022/02/13 07:52:42;;;;;;;0.00;0.00;;;;;21.50;100097.00;;;;5089012;28;20056;-76
2022/02/13 07:55:14;;;;;;;0.00;0.00;;;;;21.40;100108.00;;;;5089940;28;20047;-76
2022/02/13 07:57:44;;;;;;;0.00;0.00;;;;;21.40;100129.00;;;;5090024;28;20507;-76
2022/02/13 08:00:14;;;;;;;56.20;51.83;;;;;21.30;100110.00;;;;5090168;28;20062;-75
2022/02/13 08:02:44;;;;;;;27.70;25.80;;;;;21.20;100120.00;;;;5089894;28;20044;-75
2022/02/13 08:05:14;;;;;;;205.63;33.63;;;;;21.10;100098.00;;;;5088993;28;20056;-77
2022/02/13 08:07:46;;;;;;;0.00;0.00;;;;;21.10;100106.00;;;;5089239;28;20079;-76
2022/02/13 08:10:16;;;;;;;0.00;0.00;;;;;21.00;100092.00;;;;5089803;28;20040;-76
2022/02/13 08:12:47;;;;;;;0.00;0.00;;;;;20.90;100094.00;;;;5088565;28;20711;-76
2022/02/13 08:15:16;;;;;;;0.00;0.00;;;;;20.90;100117.00;;;;5090418;28;20055;-76
2022/02/13 08:17:46;;;;;;;0.00;0.00;;;;;20.80;100111.00;;;;5090315;28;20039;-76
2022/02/13 08:20:15;;;;;;;0.00;0.00;;;;;20.80;100118.00;;;;5088386;28;20051;-76
2022/02/13 08:22:45;;;;;;;0.00;0.00;;;;;20.70;100110.00;;;;5090044;28;20048;-76
2022/02/13 08:25:15;;;;;;;0.35;0.35;;;;;20.70;100116.00;;;;5088169;28;20051;-77
2022/02/13 08:27:45;;;;;;;0.00;0.00;;;;;20.70;100109.00;;;;5089203;28;20076;-77
2022/02/13 08:30:16;;;;;;;0.00;0.00;;;;;20.60;100124.00;;;;5089987;28;20036;-77
2022/02/13 08:32:46;;;;;;;0.00;0.00;;;;;20.60;100108.00;;;;5088008;28;20040;-76
2022/02/13 08:35:16;;;;;;;;;;;;;20.70;100119.00;;;;5090226;28;20106;-76
2022/02/13 08:37:45;;;;;;;0.00;0.00;;;;;20.60;100114.00;;;;5088918;28;19924;-76
2022/02/13 08:40:16;;;;;;;;;;;;;20.60;100118.00;;;;5089421;28;20119;-76
2022/02/13 08:42:45;;;;;;;0.00;0.00;;;;;20.60;100116.00;;;;5071350;28;20342;-76
2022/02/13 08:45:17;;;;;;;0.00;0.00;;;;;20.60;100124.00;;;;5089475;28;20097;-76
2022/02/13 08:47:46;;;;;;;0.00;0.00;;;;;20.50;100126.00;;;;5087824;28;20495;-76
2022/02/13 08:50:17;;;;;;;0.00;0.00;;;;;20.60;100115.00;;;;5087574;28;20568;-77
2022/02/13 08:52:50;;;;;;;0.00;0.00;;;;;20.60;100134.00;;;;5088880;28;20413;-77
2022/02/13 08:55:20;;;;;;;0.00;0.00;;;;;20.60;100123.00;;;;5089552;28;20131;-76
2022/02/13 08:57:50;;;;;;;0.00;0.00;;;;;20.60;100126.00;;;;5088936;28;20525;-77
2022/02/13 09:00:20;;;;;;;0.00;0.00;;;;;20.60;100148.00;;;;5088700;28;20507;-78
2022/02/13 09:02:49;;;;;;;0.00;0.00;;;;;20.60;100145.00;;;;5089449;28;20052;-76
2022/02/13 09:05:19;;;;;;;0.00;0.00;;;;;20.60;100164.00;;;;5087600;28;20036;-77
2022/02/13 09:07:48;;;;;;;0.00;0.00;;;;;20.60;100155.00;;;;5087521;28;20090;-75
2022/02/13 09:10:18;;;;;;;0.00;0.00;;;;;20.70;100145.00;;;;5071559;28;20433;-77
2022/02/13 09:12:48;;;;;;;0.07;0.07;;;;;20.70;100171.00;;;;5088779;28;20046;-77
2022/02/13 09:15:19;;;;;;;0.00;0.00;;;;;20.70;100163.00;;;;5087900;28;20047;-77
2022/02/13 09:17:48;;;;;;;0.00;0.00;;;;;20.80;100175.00;;;;5088196;28;20055;-78
2022/02/13 09:20:18;;;;;;;0.00;0.00;;;;;20.80;100156.00;;;;5088859;28;20044;-78
2022/02/13 09:22:48;;;;;;;0.00;0.00;;;;;20.80;100176.00;;;;5088555;28;20040;-77
2022/02/13 09:25:18;;;;;;;0.00;0.00;;;;;20.80;100155.00;;;;5088841;28;20051;-77
2022/02/13 09:27:47;;;;;;;0.00;0.00;;;;;20.70;100169.00;;;;5086658;28;20048;-77
2022/02/13 09:30:18;;;;;;;0.00;0.00;;;;;20.70;100186.00;;;;5088247;28;20059;-78
2022/02/13 09:32:47;;;;;;;0.00;0.00;;;;;20.70;100172.00;;;;5088273;28;20048;-77
2022/02/13 09:35:18;;;;;;;0.00;0.00;;;;;20.80;100147.00;;;;5088361;28;20047;-78
2022/02/13 09:37:50;;;;;;;0.10;0.10;;;;;20.80;100145.00;;;;5086739;28;20092;-78
2022/02/13 09:40:20;;;;;;;0.70;0.47;;;;;20.90;100161.00;;;;5087104;28;20158;-78
2022/02/13 09:42:50;;;;;;;0.00;0.00;;;;;20.90;100154.00;;;;5087708;28;20047;-78
2022/02/13 09:45:19;;;;;;;0.00;0.00;;;;;21.00;100175.00;;;;5087851;28;20064;-78
2022/02/13 09:47:49;;;;;;;0.00;0.00;;;;;21.10;100175.00;;;;5087951;28;20097;-78
2022/02/13 09:50:19;;;;;;;0.00;0.00;;;;;21.40;100191.00;;;;5085389;28;20064;-77
2022/02/13 09:52:54;;;;;;;0.00;0.00;;;;;21.50;100186.00;;;;5088364;28;20308;-77
2022/02/13 09:55:29;;;;;;;0.00;0.00;;;;;21.70;100176.00;;;;5086642;28;20200;-77
2022/02/13 09:58:05;;;;;;;0.13;0.10;;;;;21.90;100181.00;;;;5088645;28;20059;-77
2022/02/13 10:00:53;;;;;;;0.15;0.15;;;;;22.30;100154.00;;;;5087711;28;20101;-79
2022/02/13 10:03:28;;;;;;;0.00;0.00;;;;;22.50;100151.00;;;;5086093;28;20135;-79
2022/02/13 10:06:11;;;;;;;0.00;0.00;;;;;23.10;100148.00;;;;5087641;28;20046;-77
2022/02/13 10:08:44;;;;;;;0.00;0.00;;;;;23.50;100159.00;;;;5086219;28;20048;-76
2022/02/13 10:11:25;;;;;;;0.00;0.00;;;;;23.40;100189.00;;;;5087651;28;20063;-76
2022/02/13 10:14:10;;;;;;;0.00;0.00;;;;;23.40;100190.00;;;;5086324;28;20055;-76
2022/02/13 10:16:43;;;;;;;0.00;0.00;;;;;23.50;100194.00;;;;5087439;28;20047;-76
2022/02/13 10:19:25;;;;;;;0.00;0.00;;;;;23.60;100191.00;;;;5087128;28;20047;-76
2022/02/13 10:21:55;;;;;;;0.00;0.00;;;;;23.70;100181.00;;;;5087627;28;20048;-77
2022/02/13 10:24:30;;;;;;;0.00;0.00;;;;;23.90;100189.00;;;;5085390;28;21165;-76
2022/02/13 10:27:00;;;;;;;0.00;0.00;;;;;24.10;100202.00;;;;5087563;28;20052;-77
2022/02/13 10:29:33;;;;;;;0.00;0.00;;;;;23.90;100193.00;;;;5085995;28;20051;-76
2022/02/13 10:32:14;;;;;;;0.00;0.00;;;;;23.80;100203.00;;;;5085986;28;20052;-77
2022/02/13 10:35:11;;;;;;;0.00;0.00;;;;;23.70;100217.00;;;;5084715;28;20122;-77
2022/02/13 10:37:52;;;;;;;0.00;0.00;;;;;23.70;100229.00;;;;5085862;28;20063;-76
2022/02/13 10:40:27;;;;;;;0.00;0.00;;;;;23.60;100226.00;;;;5085642;28;20047;-76
2022/02/13 10:43:05;;;;;;;0.10;0.10;;;;;23.60;100224.00;;;;5086605;28;20056;-76
2022/02/13 10:45:37;;;;;;;0.00;0.00;;;;;23.90;100211.00;;;;5086943;28;20036;-77
2022/02/13 10:48:09;;;;;;;0.00;0.00;;;;;24.10;100238.00;;;;5085729;28;20072;-77
2022/02/13 10:50:40;;;;;;;0.50;0.35;;;;;24.30;100227.00;;;;5086818;28;20146;-76
2022/02/13 10:53:13;;;;;;;1.45;0.85;;;;;24.20;100214.00;;;;5086769;28;20040;-78
2022/02/13 10:55:42;;;;;;;0.00;0.00;;;;;24.40;100223.00;;;;5087039;28;20129;-77
2022/02/13 10:58:12;;;;;;;0.00;0.00;;;;;24.30;100236.00;;;;5087280;28;20044;-77
2022/02/13 11:00:42;;;;;;;0.00;0.00;;;;;24.20;100250.00;;;;5086942;28;20066;-77
2022/02/13 11:03:18;;;;;;;0.00;0.00;;;;;24.20;100238.00;;;;5086436;28;20051;-75
2022/02/13 11:05:50;;;;;;;0.15;0.15;;;;;24.20;100234.00;;;;5085230;28;20525;-78
2022/02/13 11:08:21;;;;;;;0.03;0.03;;;;;24.20;100225.00;;;;5085145;28;20039;-77
2022/02/13 11:10:53;;;;;;;0.00;0.00;;;;;24.30;100231.00;;;;5085082;28;20059;-76
2022/02/13 11:13:27;;;;;;;0.00;0.00;;;;;24.60;100217.00;;;;5087007;28;20048;-76
2022/02/13 11:16:00;;;;;;;0.00;0.00;;;;;24.90;100215.00;;;;5086725;28;20040;-76
2022/02/13 11:18:33;;;;;;;0.00;0.00;;;;;25.10;100216.00;;;;5086344;28;20495;-76
2022/02/13 11:21:03;;;;;;;0.00;0.00;;;;;25.10;100196.00;;;;5087172;28;20483;-76
2022/02/13 11:23:33;;;;;;;0.17;0.17;;;;;26.30;100156.00;;;;5086168;28;20529;-76
2022/02/13 11:26:06;;;;;;;0.00;0.00;;;;;27.60;100114.00;;;;5086334;28;20040;-76
2022/02/13 11:28:42;;;;;;;0.10;0.10;;;;;28.20;100155.00;;;;5085737;28;20694;-76
2022/02/13 11:31:29;;;;;;;0.15;0.15;;;;;27.40;100195.00;;;;5086160;28;20074;-77
2022/02/13 11:34:00;;;;;;;0.65;0.43;;;;;26.50;100206.00;;;;5086077;28;20078;-76
2022/02/13 11:36:49;;;;;;;0.00;0.00;;;;;26.40;100210.00;;;;5084341;28;20474;-76
2022/02/13 11:39:37;;;;;;;0.00;0.00;;;;;26.60;100215.00;;;;5085966;28;20249;-78
2022/02/13 11:42:15;;;;;;;0.75;0.68;;;;;26.40;100211.00;;;;5083568;28;20076;-75
2022/02/13 11:44:49;;;;;;;0.00;0.00;;;;;26.00;100223.00;;;;5085925;28;20051;-76
2022/02/13 11:47:40;;;;;;;0.00;0.00;;;;;25.80;100240.00;;;;5086096;28;20043;-76
2022/02/13 11:50:09;;;;;;;;;;;;;25.70;100236.00;;;;5084904;28;20090;-75
2022/02/13 11:53:00;;;;;;;0.00;0.00;;;;;25.80;100227.00;;;;5084598;28;19924;-76
2022/02/13 11:55:39;;;;;;;0.00;0.00;;;;;25.90;100230.00;;;;5087020;28;20464;-76
2022/02/13 11:58:14;;;;;;;0.10;0.10;;;;;25.60;100254.00;;;;5085522;28;20044;-76
2022/02/13 12:00:50;;;;;;;0.73;0.10;;;;;25.20;100243.00;;;;5084687;28;20127;-78
2022/02/13 12:03:28;;;;;;;0.00;0.00;;;;;25.00;100253.00;;;;5086507;28;20051;-76
2022/02/13 12:06:07;;;;;;;0.00;0.00;;;;;24.70;100260.00;;;;5086356;28;20515;-77
2022/02/13 12:08:36;;;;;;;0.70;0.63;;;;;24.70;100256.00;;;;5085176;28;20047;-76
2022/02/13 12:11:10;;;;;;;0.55;0.50;;;;;24.70;100226.00;;;;5085920;28;20055;-77
2022/02/13 12:13:41;;;;;;;0.52;0.28;;;;;25.00;100213.00;;;;5086323;28;20143;-77
2022/02/13 12:16:13;;;;;;;1.90;1.58;;;;;25.40;100196.00;;;;5089740;28;20571;-76
2022/02/13 12:18:50;;;;;;;0.00;0.00;;;;;26.00;100204.00;;;;5087810;28;20074;-76
2022/02/13 12:21:29;;;;;;;0.52;0.52;;;;;26.40;100201.00;;;;5087972;28;20063;-76
2022/02/13 12:24:03;;;;;;;3.00;1.20;;;;;26.40;100209.00;;;;5089490;28;20063;-76
2022/02/13 12:26:33;;;;;;;0.15;0.15;;;;;26.10;100238.00;;;;5088956;28;20040;-78
2022/02/13 12:29:03;;;;;;;0.00;0.00;;;;;25.80;100237.00;;;;5087313;28;20048;-77